sensor_id;sensor_type;location;lat;lon;timestamp;temperature;humidity
15111;DHT22;7656;51.954;7.998;2023-01-28T00:01:21;4.10;99.90
15111;DHT22;7656;51.954;7.998;2023-01-28T00:05:42;4.20;99.90
15111;DHT22;7656;51.954;7.998;2023-01-28T00:10:03;4.10;99.90
15111;DHT22;7656;51.954;7.998;2023-01-28T00:14:25;4.10;99.90
15111;DHT22;7656;51.954;7.998;2023-01-28T00:18:46;4.00;99.90
15111;DHT22;7656;51.954;7.998;2023-01-28T00:23:07;4.10;99.90
15111;DHT22;7656;51.954;7.998;2023-01-28T00:27:28;4.10;99.90
15111;DHT22;7656;51.954;7.998;2023-01-28T00:31:52;4.20;99.90
15111;DHT22;7656;51.954;7.998;2023-01-28T00:36:13;4.10;99.90
15111;DHT22;7656;51.954;7.998;2023-01-28T00:40:35;4.10;99.90
15111;DHT22;7656;51.954;7.998;2023-01-28T00:44:57;4.10;99.90
15111;DHT22;7656;51.954;7.998;2023-01-28T00:49:18;4.00;99.90
15111;DHT22;7656;51.954;7.998;2023-01-28T00:53:39;4.10;99.90
15111;DHT22;7656;51.954;7.998;2023-01-28T00:58:01;4.20;99.90
15111;DHT22;7656;51.954;7.998;2023-01-28T01:02:22;4.20;99.90
15111;DHT22;7656;51.954;7.998;2023-01-28T01:06:43;4.00;99.90
15111;DHT22;7656;51.954;7.998;2023-01-28T01:11:06;3.70;99.90
15111;DHT22;7656;51.954;7.998;2023-01-28T01:15:27;3.30;99.90
15111;DHT22;7656;51.954;7.998;2023-01-28T01:19:48;3.40;99.90
15111;DHT22;7656;51.954;7.998;2023-01-28T01:24:09;3.20;99.90
15111;DHT22;7656;51.954;7.998;2023-01-28T01:28:30;3.10;99.90
15111;DHT22;7656;51.954;7.998;2023-01-28T01:32:51;3.10;99.90
15111;DHT22;7656;51.954;7.998;2023-01-28T01:37:13;3.40;99.90
15111;DHT22;7656;51.954;7.998;2023-01-28T01:41:34;3.30;99.90
15111;DHT22;7656;51.954;7.998;2023-01-28T01:45:58;3.10;99.90
15111;DHT22;7656;51.954;7.998;2023-01-28T01:50:23;3.00;99.90
15111;DHT22;7656;51.954;7.998;2023-01-28T01:54:51;3.10;99.90
15111;DHT22;7656;51.954;7.998;2023-01-28T01:59:19;3.30;99.90
15111;DHT22;7656;51.954;7.998;2023-01-28T02:08:29;3.20;99.90
15111;DHT22;7656;51.954;7.998;2023-01-28T02:12:55;3.10;99.90
15111;DHT22;7656;51.954;7.998;2023-01-28T02:17:20;2.30;99.90
15111;DHT22;7656;51.954;7.998;2023-01-28T02:26:58;2.60;99.90
15111;DHT22;7656;51.954;7.998;2023-01-28T02:31:53;2.80;99.90
15111;DHT22;7656;51.954;7.998;2023-01-28T02:41:27;2.90;99.90
15111;DHT22;7656;51.954;7.998;2023-01-28T02:45:51;2.10;99.90
15111;DHT22;7656;51.954;7.998;2023-01-28T02:50:40;2.20;99.90
15111;DHT22;7656;51.954;7.998;2023-01-28T02:55:26;2.60;99.90
15111;DHT22;7656;51.954;7.998;2023-01-28T03:00:18;2.80;99.90
15111;DHT22;7656;51.954;7.998;2023-01-28T03:04:50;2.80;99.90
15111;DHT22;7656;51.954;7.998;2023-01-28T03:09:16;3.00;99.90
15111;DHT22;7656;51.954;7.998;2023-01-28T03:13:48;3.00;99.90
15111;DHT22;7656;51.954;7.998;2023-01-28T03:18:48;3.10;99.90
15111;DHT22;7656;51.954;7.998;2023-01-28T03:23:37;3.20;99.90
15111;DHT22;7656;51.954;7.998;2023-01-28T03:28:21;3.10;99.90
15111;DHT22;7656;51.954;7.998;2023-01-28T03:33:04;3.30;99.90
15111;DHT22;7656;51.954;7.998;2023-01-28T03:37:44;3.30;99.90
15111;DHT22;7656;51.954;7.998;2023-01-28T03:42:14;3.30;99.90
15111;DHT22;7656;51.954;7.998;2023-01-28T03:46:58;3.30;99.90
15111;DHT22;7656;51.954;7.998;2023-01-28T03:51:19;3.30;99.90
15111;DHT22;7656;51.954;7.998;2023-01-28T03:55:41;3.20;99.90
15111;DHT22;7656;51.954;7.998;2023-01-28T04:00:03;3.10;99.90
15111;DHT22;7656;51.954;7.998;2023-01-28T04:04:34;2.80;99.90
15111;DHT22;7656;51.954;7.998;2023-01-28T04:08:56;2.90;99.90
15111;DHT22;7656;51.954;7.998;2023-01-28T04:13:46;3.00;99.90
15111;DHT22;7656;51.954;7.998;2023-01-28T04:18:10;3.20;99.90
15111;DHT22;7656;51.954;7.998;2023-01-28T04:22:32;3.10;99.90
15111;DHT22;7656;51.954;7.998;2023-01-28T04:26:53;3.20;99.90
15111;DHT22;7656;51.954;7.998;2023-01-28T04:31:14;3.20;99.90
15111;DHT22;7656;51.954;7.998;2023-01-28T04:35:35;3.20;99.90
15111;DHT22;7656;51.954;7.998;2023-01-28T04:40:02;3.10;99.90
15111;DHT22;7656;51.954;7.998;2023-01-28T04:44:42;3.00;99.90
15111;DHT22;7656;51.954;7.998;2023-01-28T04:49:12;3.00;99.90
15111;DHT22;7656;51.954;7.998;2023-01-28T04:53:46;3.10;99.90
15111;DHT22;7656;51.954;7.998;2023-01-28T04:58:23;3.00;99.90
15111;DHT22;7656;51.954;7.998;2023-01-28T05:02:47;3.10;99.90
15111;DHT22;7656;51.954;7.998;2023-01-28T05:07:09;2.70;99.90
15111;DHT22;7656;51.954;7.998;2023-01-28T05:11:31;2.10;99.90
15111;DHT22;7656;51.954;7.998;2023-01-28T05:15:57;2.00;99.90
15111;DHT22;7656;51.954;7.998;2023-01-28T05:20:18;2.40;99.90
15111;DHT22;7656;51.954;7.998;2023-01-28T05:24:42;2.20;99.90
15111;DHT22;7656;51.954;7.998;2023-01-28T05:29:03;2.30;99.90
15111;DHT22;7656;51.954;7.998;2023-01-28T05:33:25;2.50;99.90
15111;DHT22;7656;51.954;7.998;2023-01-28T05:37:46;2.70;99.90
15111;DHT22;7656;51.954;7.998;2023-01-28T05:42:08;2.80;99.90
15111;DHT22;7656;51.954;7.998;2023-01-28T05:46:35;2.60;99.90
15111;DHT22;7656;51.954;7.998;2023-01-28T05:51:01;2.40;99.90
15111;DHT22;7656;51.954;7.998;2023-01-28T05:55:28;2.30;99.90
15111;DHT22;7656;51.954;7.998;2023-01-28T05:59:49;2.40;99.90
15111;DHT22;7656;51.954;7.998;2023-01-28T06:04:11;2.20;99.90
15111;DHT22;7656;51.954;7.998;2023-01-28T06:08:33;2.40;99.90
15111;DHT22;7656;51.954;7.998;2023-01-28T06:12:55;2.60;99.90
15111;DHT22;7656;51.954;7.998;2023-01-28T06:17:54;2.60;99.90
15111;DHT22;7656;51.954;7.998;2023-01-28T06:22:21;2.10;99.90
15111;DHT22;7656;51.954;7.998;2023-01-28T06:26:42;2.20;99.90
15111;DHT22;7656;51.954;7.998;2023-01-28T06:31:03;2.50;99.90
15111;DHT22;7656;51.954;7.998;2023-01-28T06:35:25;2.70;99.90
15111;DHT22;7656;51.954;7.998;2023-01-28T06:39:46;2.60;99.90
15111;DHT22;7656;51.954;7.998;2023-01-28T06:44:07;2.30;99.90
15111;DHT22;7656;51.954;7.998;2023-01-28T06:48:28;2.10;99.90
15111;DHT22;7656;51.954;7.998;2023-01-28T06:52:49;1.60;99.90
15111;DHT22;7656;51.954;7.998;2023-01-28T06:57:10;1.40;99.90
15111;DHT22;7656;51.954;7.998;2023-01-28T07:01:32;1.60;99.90
15111;DHT22;7656;51.954;7.998;2023-01-28T07:05:53;1.60;99.90
15111;DHT22;7656;51.954;7.998;2023-01-28T07:10:14;2.00;99.90
15111;DHT22;7656;51.954;7.998;2023-01-28T07:14:35;2.20;99.90
15111;DHT22;7656;51.954;7.998;2023-01-28T07:18:56;2.30;99.90
15111;DHT22;7656;51.954;7.998;2023-01-28T07:23:17;2.20;99.90
15111;DHT22;7656;51.954;7.998;2023-01-28T07:27:44;1.70;99.90
15111;DHT22;7656;51.954;7.998;2023-01-28T07:32:08;1.70;99.90
15111;DHT22;7656;51.954;7.998;2023-01-28T07:36:30;1.70;99.90
15111;DHT22;7656;51.954;7.998;2023-01-28T07:40:51;1.60;99.90
15111;DHT22;7656;51.954;7.998;2023-01-28T07:45:12;1.70;99.90
15111;DHT22;7656;51.954;7.998;2023-01-28T07:49:34;1.70;99.90
15111;DHT22;7656;51.954;7.998;2023-01-28T07:53:56;1.40;99.90
15111;DHT22;7656;51.954;7.998;2023-01-28T07:58:17;1.10;99.90
15111;DHT22;7656;51.954;7.998;2023-01-28T08:02:38;1.00;99.90
15111;DHT22;7656;51.954;7.998;2023-01-28T08:06:59;0.90;99.90
15111;DHT22;7656;51.954;7.998;2023-01-28T08:11:20;1.10;99.90
15111;DHT22;7656;51.954;7.998;2023-01-28T08:15:43;1.10;99.90
15111;DHT22;7656;51.954;7.998;2023-01-28T08:20:05;1.60;99.90
15111;DHT22;7656;51.954;7.998;2023-01-28T08:24:26;2.10;99.90
15111;DHT22;7656;51.954;7.998;2023-01-28T08:28:47;2.40;99.90
15111;DHT22;7656;51.954;7.998;2023-01-28T08:33:11;2.60;99.90
15111;DHT22;7656;51.954;7.998;2023-01-28T08:37:37;2.80;99.90
15111;DHT22;7656;51.954;7.998;2023-01-28T08:41:58;2.80;99.90
15111;DHT22;7656;51.954;7.998;2023-01-28T08:46:19;3.00;99.90
15111;DHT22;7656;51.954;7.998;2023-01-28T08:50:40;3.20;99.90
15111;DHT22;7656;51.954;7.998;2023-01-28T08:55:01;3.30;99.90
15111;DHT22;7656;51.954;7.998;2023-01-28T08:59:22;3.50;99.90
15111;DHT22;7656;51.954;7.998;2023-01-28T09:03:43;3.40;99.90
15111;DHT22;7656;51.954;7.998;2023-01-28T09:08:06;3.60;99.90
15111;DHT22;7656;51.954;7.998;2023-01-28T09:12:32;3.70;99.90
15111;DHT22;7656;51.954;7.998;2023-01-28T09:16:53;3.70;99.90
15111;DHT22;7656;51.954;7.998;2023-01-28T09:21:14;3.80;99.90
15111;DHT22;7656;51.954;7.998;2023-01-28T09:25:36;3.90;99.90
15111;DHT22;7656;51.954;7.998;2023-01-28T09:29:57;4.00;99.90
15111;DHT22;7656;51.954;7.998;2023-01-28T09:34:18;4.10;99.90
15111;DHT22;7656;51.954;7.998;2023-01-28T09:38:39;4.10;99.90
15111;DHT22;7656;51.954;7.998;2023-01-28T09:43:25;4.00;99.90
15111;DHT22;7656;51.954;7.998;2023-01-28T09:47:54;4.00;99.90
15111;DHT22;7656;51.954;7.998;2023-01-28T09:52:18;4.10;99.90
15111;DHT22;7656;51.954;7.998;2023-01-28T09:56:44;4.20;99.90
15111;DHT22;7656;51.954;7.998;2023-01-28T10:06:14;4.00;99.90
15111;DHT22;7656;51.954;7.998;2023-01-28T10:10:50;4.20;99.90
15111;DHT22;7656;51.954;7.998;2023-01-28T10:24:50;4.30;99.90
15111;DHT22;7656;51.954;7.998;2023-01-28T10:29:20;4.20;99.90
15111;DHT22;7656;51.954;7.998;2023-01-28T10:33:44;4.40;99.90
15111;DHT22;7656;51.954;7.998;2023-01-28T10:38:08;4.40;99.90
15111;DHT22;7656;51.954;7.998;2023-01-28T10:42:35;4.30;99.90
15111;DHT22;7656;51.954;7.998;2023-01-28T10:47:00;4.50;99.90
15111;DHT22;7656;51.954;7.998;2023-01-28T10:51:31;4.10;99.90
15111;DHT22;7656;51.954;7.998;2023-01-28T10:55:57;4.20;99.90
15111;DHT22;7656;51.954;7.998;2023-01-28T11:04:46;4.30;99.90
15111;DHT22;7656;51.954;7.998;2023-01-28T11:09:24;4.20;99.90
15111;DHT22;7656;51.954;7.998;2023-01-28T11:13:53;4.30;99.90
15111;DHT22;7656;51.954;7.998;2023-01-28T11:18:24;4.30;99.90
15111;DHT22;7656;51.954;7.998;2023-01-28T11:22:48;4.60;99.90
15111;DHT22;7656;51.954;7.998;2023-01-28T11:27:14;4.90;99.90
15111;DHT22;7656;51.954;7.998;2023-01-28T11:31:41;5.30;99.90
15111;DHT22;7656;51.954;7.998;2023-01-28T11:36:15;6.20;99.90
15111;DHT22;7656;51.954;7.998;2023-01-28T11:40:52;6.60;99.90
15111;DHT22;7656;51.954;7.998;2023-01-28T11:45:16;6.70;99.90
15111;DHT22;7656;51.954;7.998;2023-01-28T11:50:04;9.20;99.90
15111;DHT22;7656;51.954;7.998;2023-01-28T12:00:08;7.10;99.90
15111;DHT22;7656;51.954;7.998;2023-01-28T12:24:12;8.60;99.90
15111;DHT22;7656;51.954;7.998;2023-01-28T12:47:47;4.60;99.90
15111;DHT22;7656;51.954;7.998;2023-01-28T12:52:18;4.40;99.90
15111;DHT22;7656;51.954;7.998;2023-01-28T12:56:51;4.60;99.90
15111;DHT22;7656;51.954;7.998;2023-01-28T13:01:23;5.40;99.90
15111;DHT22;7656;51.954;7.998;2023-01-28T13:05:53;8.30;99.90
15111;DHT22;7656;51.954;7.998;2023-01-28T13:10:23;10.70;99.90
15111;DHT22;7656;51.954;7.998;2023-01-28T13:14:47;11.00;99.90
15111;DHT22;7656;51.954;7.998;2023-01-28T13:23:41;10.10;99.90
15111;DHT22;7656;51.954;7.998;2023-01-28T13:28:20;12.10;99.90
15111;DHT22;7656;51.954;7.998;2023-01-28T13:32:55;12.50;99.90
15111;DHT22;7656;51.954;7.998;2023-01-28T13:37:23;12.20;99.90
15111;DHT22;7656;51.954;7.998;2023-01-28T13:41:49;11.80;99.90
15111;DHT22;7656;51.954;7.998;2023-01-28T13:46:29;12.70;99.90
15111;DHT22;7656;51.954;7.998;2023-01-28T13:50:52;11.60;99.90
15111;DHT22;7656;51.954;7.998;2023-01-28T13:55:20;9.40;99.90
15111;DHT22;7656;51.954;7.998;2023-01-28T14:09:30;6.20;99.90
15111;DHT22;7656;51.954;7.998;2023-01-28T14:14:22;6.00;99.90
15111;DHT22;7656;51.954;7.998;2023-01-28T14:18:51;8.00;99.90
15111;DHT22;7656;51.954;7.998;2023-01-28T14:23:16;5.80;99.90
15111;DHT22;7656;51.954;7.998;2023-01-28T14:27:45;6.30;99.90
15111;DHT22;7656;51.954;7.998;2023-01-28T14:32:17;6.80;99.90
15111;DHT22;7656;51.954;7.998;2023-01-28T14:36:42;7.40;99.90
15111;DHT22;7656;51.954;7.998;2023-01-28T14:41:04;7.80;99.90
15111;DHT22;7656;51.954;7.998;2023-01-28T14:51:02;6.50;99.90
15111;DHT22;7656;51.954;7.998;2023-01-28T14:56:08;6.60;99.90
15111;DHT22;7656;51.954;7.998;2023-01-28T15:00:36;6.80;99.90
15111;DHT22;7656;51.954;7.998;2023-01-28T15:05:13;6.70;99.90
15111;DHT22;7656;51.954;7.998;2023-01-28T15:09:39;6.70;99.90
15111;DHT22;7656;51.954;7.998;2023-01-28T15:14:00;6.50;99.90
15111;DHT22;7656;51.954;7.998;2023-01-28T15:22:55;5.90;99.90
15111;DHT22;7656;51.954;7.998;2023-01-28T15:27:20;5.70;99.90
15111;DHT22;7656;51.954;7.998;2023-01-28T15:31:47;5.50;99.90
15111;DHT22;7656;51.954;7.998;2023-01-28T15:36:09;5.30;99.90
15111;DHT22;7656;51.954;7.998;2023-01-28T15:40:30;5.20;99.90
15111;DHT22;7656;51.954;7.998;2023-01-28T15:44:52;5.00;99.90
15111;DHT22;7656;51.954;7.998;2023-01-28T15:49:14;4.80;99.90
15111;DHT22;7656;51.954;7.998;2023-01-28T15:53:42;4.60;99.90
15111;DHT22;7656;51.954;7.998;2023-01-28T16:02:48;4.30;99.90
15111;DHT22;7656;51.954;7.998;2023-01-28T16:07:10;4.10;99.90
15111;DHT22;7656;51.954;7.998;2023-01-28T16:11:35;3.90;99.90
15111;DHT22;7656;51.954;7.998;2023-01-28T16:16:02;3.80;99.90
15111;DHT22;7656;51.954;7.998;2023-01-28T16:20:27;3.60;99.90
15111;DHT22;7656;51.954;7.998;2023-01-28T16:24:51;3.60;99.90
15111;DHT22;7656;51.954;7.998;2023-01-28T16:29:14;3.50;99.90
15111;DHT22;7656;51.954;7.998;2023-01-28T16:33:36;3.50;99.90
15111;DHT22;7656;51.954;7.998;2023-01-28T16:37:57;3.50;99.90
15111;DHT22;7656;51.954;7.998;2023-01-28T16:42:19;3.10;99.90
15111;DHT22;7656;51.954;7.998;2023-01-28T16:46:41;2.50;99.90
15111;DHT22;7656;51.954;7.998;2023-01-28T16:51:03;2.50;99.90
15111;DHT22;7656;51.954;7.998;2023-01-28T16:55:25;2.30;99.90
15111;DHT22;7656;51.954;7.998;2023-01-28T16:59:47;1.80;99.90
15111;DHT22;7656;51.954;7.998;2023-01-28T17:04:08;2.00;99.90
15111;DHT22;7656;51.954;7.998;2023-01-28T17:08:30;2.20;99.90
15111;DHT22;7656;51.954;7.998;2023-01-28T17:12:51;2.30;99.90
15111;DHT22;7656;51.954;7.998;2023-01-28T17:17:12;2.30;99.90
15111;DHT22;7656;51.954;7.998;2023-01-28T17:21:33;2.20;99.90
15111;DHT22;7656;51.954;7.998;2023-01-28T17:25:54;2.20;99.90
15111;DHT22;7656;51.954;7.998;2023-01-28T17:30:17;2.10;99.90
15111;DHT22;7656;51.954;7.998;2023-01-28T17:34:40;2.00;99.90
15111;DHT22;7656;51.954;7.998;2023-01-28T17:39:01;1.90;99.90
15111;DHT22;7656;51.954;7.998;2023-01-28T17:43:22;1.50;99.90
15111;DHT22;7656;51.954;7.998;2023-01-28T17:47:43;1.50;99.90
15111;DHT22;7656;51.954;7.998;2023-01-28T17:52:04;1.50;99.90
15111;DHT22;7656;51.954;7.998;2023-01-28T17:56:27;1.50;99.90
15111;DHT22;7656;51.954;7.998;2023-01-28T18:00:48;1.60;99.90
15111;DHT22;7656;51.954;7.998;2023-01-28T18:05:11;1.50;99.90
15111;DHT22;7656;51.954;7.998;2023-01-28T18:09:32;1.50;99.90
15111;DHT22;7656;51.954;7.998;2023-01-28T18:13:53;1.50;99.90
15111;DHT22;7656;51.954;7.998;2023-01-28T18:18:14;1.50;99.90
15111;DHT22;7656;51.954;7.998;2023-01-28T18:22:35;1.40;99.90
15111;DHT22;7656;51.954;7.998;2023-01-28T18:26:57;1.40;99.90
15111;DHT22;7656;51.954;7.998;2023-01-28T18:31:20;1.40;99.90
15111;DHT22;7656;51.954;7.998;2023-01-28T18:35:45;1.40;99.90
15111;DHT22;7656;51.954;7.998;2023-01-28T18:40:06;1.30;99.90
15111;DHT22;7656;51.954;7.998;2023-01-28T18:44:29;1.30;99.90
15111;DHT22;7656;51.954;7.998;2023-01-28T18:48:50;1.10;99.90
15111;DHT22;7656;51.954;7.998;2023-01-28T18:53:11;1.20;99.90
15111;DHT22;7656;51.954;7.998;2023-01-28T18:57:32;1.20;99.90
15111;DHT22;7656;51.954;7.998;2023-01-28T19:01:53;1.10;99.90
15111;DHT22;7656;51.954;7.998;2023-01-28T19:06:15;1.10;99.90
15111;DHT22;7656;51.954;7.998;2023-01-28T19:10:36;1.10;99.90
15111;DHT22;7656;51.954;7.998;2023-01-28T19:14:57;1.00;99.90
15111;DHT22;7656;51.954;7.998;2023-01-28T19:19:18;1.10;99.90
15111;DHT22;7656;51.954;7.998;2023-01-28T19:23:39;1.10;99.90
15111;DHT22;7656;51.954;7.998;2023-01-28T19:28:00;1.10;99.90
15111;DHT22;7656;51.954;7.998;2023-01-28T19:32:21;0.90;99.90
15111;DHT22;7656;51.954;7.998;2023-01-28T19:36:42;0.80;99.90
15111;DHT22;7656;51.954;7.998;2023-01-28T19:41:06;1.00;99.90
15111;DHT22;7656;51.954;7.998;2023-01-28T19:45:27;1.00;99.90
15111;DHT22;7656;51.954;7.998;2023-01-28T19:49:49;1.00;99.90
15111;DHT22;7656;51.954;7.998;2023-01-28T19:54:10;0.90;99.90
15111;DHT22;7656;51.954;7.998;2023-01-28T19:58:39;0.60;99.90
15111;DHT22;7656;51.954;7.998;2023-01-28T20:03:02;0.70;99.90
15111;DHT22;7656;51.954;7.998;2023-01-28T20:07:26;0.80;99.90
15111;DHT22;7656;51.954;7.998;2023-01-28T20:11:47;0.80;99.90
15111;DHT22;7656;51.954;7.998;2023-01-28T20:16:14;0.70;99.90
15111;DHT22;7656;51.954;7.998;2023-01-28T20:20:39;0.60;99.90
15111;DHT22;7656;51.954;7.998;2023-01-28T20:25:00;0.40;99.90
15111;DHT22;7656;51.954;7.998;2023-01-28T20:29:21;0.50;99.90
15111;DHT22;7656;51.954;7.998;2023-01-28T20:33:42;0.50;99.90
15111;DHT22;7656;51.954;7.998;2023-01-28T20:38:03;0.20;99.90
15111;DHT22;7656;51.954;7.998;2023-01-28T20:42:24;0.20;99.90
15111;DHT22;7656;51.954;7.998;2023-01-28T20:46:45;0.30;99.90
15111;DHT22;7656;51.954;7.998;2023-01-28T20:51:07;0.30;99.90
15111;DHT22;7656;51.954;7.998;2023-01-28T20:55:31;0.40;99.90
15111;DHT22;7656;51.954;7.998;2023-01-28T20:59:52;0.40;99.90
15111;DHT22;7656;51.954;7.998;2023-01-28T21:04:13;0.40;99.90
15111;DHT22;7656;51.954;7.998;2023-01-28T21:08:34;0.30;99.90
15111;DHT22;7656;51.954;7.998;2023-01-28T21:12:56;0.20;99.90
15111;DHT22;7656;51.954;7.998;2023-01-28T21:17:17;0.10;99.90
15111;DHT22;7656;51.954;7.998;2023-01-28T21:21:38;0.10;99.90
15111;DHT22;7656;51.954;7.998;2023-01-28T21:26:03;0.10;99.90
15111;DHT22;7656;51.954;7.998;2023-01-28T21:30:25;0.20;99.90
15111;DHT22;7656;51.954;7.998;2023-01-28T21:34:46;0.10;99.90
15111;DHT22;7656;51.954;7.998;2023-01-28T21:39:08;-0.10;99.90
15111;DHT22;7656;51.954;7.998;2023-01-28T21:43:30;0.00;99.90
15111;DHT22;7656;51.954;7.998;2023-01-28T21:47:51;0.00;99.90
15111;DHT22;7656;51.954;7.998;2023-01-28T21:52:13;0.10;99.90
15111;DHT22;7656;51.954;7.998;2023-01-28T21:56:34;0.20;99.90
15111;DHT22;7656;51.954;7.998;2023-01-28T22:00:56;0.20;99.90
15111;DHT22;7656;51.954;7.998;2023-01-28T22:05:17;-0.10;99.90
15111;DHT22;7656;51.954;7.998;2023-01-28T22:09:38;-0.40;99.90
15111;DHT22;7656;51.954;7.998;2023-01-28T22:13:59;-0.90;99.90
15111;DHT22;7656;51.954;7.998;2023-01-28T22:18:20;-0.50;99.90
15111;DHT22;7656;51.954;7.998;2023-01-28T22:22:42;-0.20;99.90
15111;DHT22;7656;51.954;7.998;2023-01-28T22:27:03;0.00;99.90
15111;DHT22;7656;51.954;7.998;2023-01-28T22:31:24;0.10;99.90
15111;DHT22;7656;51.954;7.998;2023-01-28T22:35:45;0.30;99.90
15111;DHT22;7656;51.954;7.998;2023-01-28T22:40:06;0.40;99.90
15111;DHT22;7656;51.954;7.998;2023-01-28T22:44:28;0.30;99.90
15111;DHT22;7656;51.954;7.998;2023-01-28T22:48:49;0.50;99.90
15111;DHT22;7656;51.954;7.998;2023-01-28T22:53:10;0.70;99.90
15111;DHT22;7656;51.954;7.998;2023-01-28T22:57:32;0.70;99.90
15111;DHT22;7656;51.954;7.998;2023-01-28T23:01:53;0.80;99.90
15111;DHT22;7656;51.954;7.998;2023-01-28T23:06:16;1.00;99.90
15111;DHT22;7656;51.954;7.998;2023-01-28T23:10:43;0.70;99.90
15111;DHT22;7656;51.954;7.998;2023-01-28T23:15:08;0.90;99.90
15111;DHT22;7656;51.954;7.998;2023-01-28T23:19:48;1.00;99.90
15111;DHT22;7656;51.954;7.998;2023-01-28T23:24:29;1.10;99.90
15111;DHT22;7656;51.954;7.998;2023-01-28T23:28:52;1.30;99.90
15111;DHT22;7656;51.954;7.998;2023-01-28T23:33:13;1.30;99.90
15111;DHT22;7656;51.954;7.998;2023-01-28T23:37:35;1.30;99.90
15111;DHT22;7656;51.954;7.998;2023-01-28T23:41:56;1.30;99.90
15111;DHT22;7656;51.954;7.998;2023-01-28T23:46:17;1.30;99.90
15111;DHT22;7656;51.954;7.998;2023-01-28T23:50:38;1.30;99.90
15111;DHT22;7656;51.954;7.998;2023-01-28T23:54:59;1.20;99.90
15111;DHT22;7656;51.954;7.998;2023-01-28T23:59:20;1.10;99.90
